sensor_id;sensor_type;location;lat;lon;timestamp;pressure;altitude;pressure_sealevel;temperature;humidity
75543;BME280;64129;53.508;10.476;2022-11-15T00:00:45;100710.63;;;5.72;84.48
75543;BME280;64129;53.508;10.476;2022-11-15T00:03:30;100712.41;;;5.64;85.53
75543;BME280;64129;53.508;10.476;2022-11-15T00:06:16;100705.41;;;5.60;84.94
75543;BME280;64129;53.508;10.476;2022-11-15T00:09:01;100712.41;;;5.62;84.70
75543;BME280;64129;53.508;10.476;2022-11-15T00:11:46;100707.16;;;5.61;85.14
75543;BME280;64129;53.508;10.476;2022-11-15T00:14:31;100705.41;;;5.57;85.14
75543;BME280;64129;53.508;10.476;2022-11-15T00:17:16;100708.91;;;5.62;84.62
75543;BME280;64129;53.508;10.476;2022-11-15T00:20:01;100701.03;;;5.51;84.91
75543;BME280;64129;53.508;10.476;2022-11-15T00:22:45;100698.38;;;5.59;84.63
75543;BME280;64129;53.508;10.476;2022-11-15T00:25:31;100695.75;;;5.54;84.56
75543;BME280;64129;53.508;10.476;2022-11-15T00:28:16;100696.66;;;5.46;85.21
75543;BME280;64129;53.508;10.476;2022-11-15T00:31:08;100703.66;;;5.50;85.21
75543;BME280;64129;53.508;10.476;2022-11-15T00:33:53;100705.44;;;5.48;84.62
75543;BME280;64129;53.508;10.476;2022-11-15T00:36:38;100700.16;;;5.51;84.58
75543;BME280;64129;53.508;10.476;2022-11-15T00:39:23;100700.16;;;5.45;85.40
75543;BME280;64129;53.508;10.476;2022-11-15T00:42:08;100694.94;;;5.39;85.38
75543;BME280;64129;53.508;10.476;2022-11-15T00:44:53;100708.94;;;5.50;84.66
75543;BME280;64129;53.508;10.476;2022-11-15T00:47:38;100702.81;;;5.46;85.05
75543;BME280;64129;53.508;10.476;2022-11-15T00:50:23;100705.41;;;5.51;84.71
75543;BME280;64129;53.508;10.476;2022-11-15T00:53:08;100704.56;;;5.46;85.25
75543;BME280;64129;53.508;10.476;2022-11-15T00:55:53;100696.66;;;5.43;84.30
75543;BME280;64129;53.508;10.476;2022-11-15T00:58:38;100703.69;;;5.44;84.91
75543;BME280;64129;53.508;10.476;2022-11-15T01:01:23;100701.06;;;5.42;84.60
75543;BME280;64129;53.508;10.476;2022-11-15T01:04:08;100692.28;;;5.40;84.53
75543;BME280;64129;53.508;10.476;2022-11-15T01:06:53;100694.06;;;5.35;84.70
75543;BME280;64129;53.508;10.476;2022-11-15T01:09:38;100694.91;;;5.42;84.32
75543;BME280;64129;53.508;10.476;2022-11-15T01:12:23;100698.47;;;5.35;84.74
75543;BME280;64129;53.508;10.476;2022-11-15T01:15:08;100689.66;;;5.43;84.21
75543;BME280;64129;53.508;10.476;2022-11-15T01:17:53;100680.91;;;5.37;84.54
75543;BME280;64129;53.508;10.476;2022-11-15T01:20:43;100680.94;;;5.27;84.53
75543;BME280;64129;53.508;10.476;2022-11-15T01:23:27;100692.34;;;5.25;84.44
75543;BME280;64129;53.508;10.476;2022-11-15T01:26:14;100677.41;;;5.28;84.53
75543;BME280;64129;53.508;10.476;2022-11-15T01:28:59;100685.31;;;5.28;83.78
75543;BME280;64129;53.508;10.476;2022-11-15T01:31:44;100691.47;;;5.27;84.22
75543;BME280;64129;53.508;10.476;2022-11-15T01:34:29;100683.56;;;5.27;83.67
75543;BME280;64129;53.508;10.476;2022-11-15T01:37:14;100666.91;;;5.16;84.09
75543;BME280;64129;53.508;10.476;2022-11-15T01:39:59;100652.88;;;5.17;84.55
75543;BME280;64129;53.508;10.476;2022-11-15T01:42:44;100672.19;;;5.13;84.53
75543;BME280;64129;53.508;10.476;2022-11-15T01:45:29;100673.97;;;5.02;84.33
75543;BME280;64129;53.508;10.476;2022-11-15T01:48:14;100667.81;;;5.05;84.26
75543;BME280;64129;53.508;10.476;2022-11-15T01:51:01;100660.81;;;4.97;85.04
75543;BME280;64129;53.508;10.476;2022-11-15T01:53:49;100664.31;;;5.09;84.23
75543;BME280;64129;53.508;10.476;2022-11-15T01:56:43;100659.97;;;4.92;85.14
75543;BME280;64129;53.508;10.476;2022-11-15T01:59:30;100657.31;;;4.97;84.74
75543;BME280;64129;53.508;10.476;2022-11-15T02:02:15;100648.56;;;4.89;84.80
75543;BME280;64129;53.508;10.476;2022-11-15T02:05:01;100649.44;;;4.88;84.67
75543;BME280;64129;53.508;10.476;2022-11-15T02:07:47;100647.66;;;4.99;83.65
75543;BME280;64129;53.508;10.476;2022-11-15T02:10:32;100645.03;;;4.96;84.13
75543;BME280;64129;53.508;10.476;2022-11-15T02:13:17;100645.03;;;4.96;83.90
75543;BME280;64129;53.508;10.476;2022-11-15T02:16:21;100632.75;;;4.84;84.27
75543;BME280;64129;53.508;10.476;2022-11-15T02:25:30;100651.19;;;4.92;84.29
75543;BME280;64129;53.508;10.476;2022-11-15T02:29:01;100645.06;;;4.79;84.61
75543;BME280;64129;53.508;10.476;2022-11-15T02:34:54;100638.06;;;4.67;84.78
75543;BME280;64129;53.508;10.476;2022-11-15T02:40:57;100626.63;;;4.79;83.78
75543;BME280;64129;53.508;10.476;2022-11-15T02:44:23;100634.53;;;4.87;83.21
75543;BME280;64129;53.508;10.476;2022-11-15T02:47:12;100621.38;;;4.84;83.43
75543;BME280;64129;53.508;10.476;2022-11-15T02:50:01;100629.25;;;4.84;82.93
75543;BME280;64129;53.508;10.476;2022-11-15T02:52:50;100633.66;;;4.82;82.98
75543;BME280;64129;53.508;10.476;2022-11-15T02:55:48;100634.53;;;4.75;83.51
75543;BME280;64129;53.508;10.476;2022-11-15T02:58:49;100636.28;;;4.82;83.29
75543;BME280;64129;53.508;10.476;2022-11-15T03:01:55;100630.16;;;4.74;83.43
75543;BME280;64129;53.508;10.476;2022-11-15T03:04:57;100644.22;;;4.56;83.53
75543;BME280;64129;53.508;10.476;2022-11-15T03:13:56;100635.44;;;4.49;83.70
75543;BME280;64129;53.508;10.476;2022-11-15T03:17:02;100629.34;;;4.53;84.39
75543;BME280;64129;53.508;10.476;2022-11-15T03:19:51;100625.81;;;4.41;84.50
75543;BME280;64129;53.508;10.476;2022-11-15T03:22:42;100631.06;;;4.47;84.55
75543;BME280;64129;53.508;10.476;2022-11-15T03:25:29;100626.69;;;4.32;84.76
75543;BME280;64129;53.508;10.476;2022-11-15T03:28:32;100637.22;;;4.32;85.14
75543;BME280;64129;53.508;10.476;2022-11-15T03:31:19;100644.22;;;4.33;85.28
75543;BME280;64129;53.508;10.476;2022-11-15T03:34:31;100633.69;;;4.48;84.07
75543;BME280;64129;53.508;10.476;2022-11-15T03:37:21;100636.34;;;4.37;85.15
75543;BME280;64129;53.508;10.476;2022-11-15T03:40:08;100624.94;;;4.40;84.54
75543;BME280;64129;53.508;10.476;2022-11-15T03:43:09;100627.59;;;4.29;84.89
75543;BME280;64129;53.508;10.476;2022-11-15T03:46:14;100621.44;;;4.38;84.59
75543;BME280;64129;53.508;10.476;2022-11-15T03:49:13;100617.94;;;4.39;84.72
75543;BME280;64129;53.508;10.476;2022-11-15T03:52:00;100612.66;;;4.42;84.55
75543;BME280;64129;53.508;10.476;2022-11-15T03:54:53;100617.06;;;4.34;85.06
75543;BME280;64129;53.508;10.476;2022-11-15T03:57:38;100616.19;;;4.35;85.31
75543;BME280;64129;53.508;10.476;2022-11-15T04:00:23;100613.53;;;4.46;84.50
75543;BME280;64129;53.508;10.476;2022-11-15T04:03:08;100612.69;;;4.33;85.09
75543;BME280;64129;53.508;10.476;2022-11-15T04:05:53;100610.94;;;4.23;85.50
75543;BME280;64129;53.508;10.476;2022-11-15T04:08:38;100607.44;;;4.24;85.27
75543;BME280;64129;53.508;10.476;2022-11-15T04:11:23;100602.16;;;4.33;84.96
75543;BME280;64129;53.508;10.476;2022-11-15T04:14:08;100605.66;;;4.32;85.13
75543;BME280;64129;53.508;10.476;2022-11-15T04:16:53;100606.56;;;4.28;84.91
75543;BME280;64129;53.508;10.476;2022-11-15T04:19:38;100612.69;;;4.30;84.57
75543;BME280;64129;53.508;10.476;2022-11-15T04:22:42;100617.06;;;4.31;84.44
75543;BME280;64129;53.508;10.476;2022-11-15T04:25:47;100624.94;;;4.31;84.98
75543;BME280;64129;53.508;10.476;2022-11-15T04:28:34;100619.69;;;4.22;85.25
75543;BME280;64129;53.508;10.476;2022-11-15T04:31:19;100607.44;;;4.24;85.04
75543;BME280;64129;53.508;10.476;2022-11-15T04:34:04;100619.69;;;4.25;85.69
75543;BME280;64129;53.508;10.476;2022-11-15T04:36:49;100599.56;;;4.24;85.36
75543;BME280;64129;53.508;10.476;2022-11-15T04:39:53;100600.41;;;4.29;85.08
75543;BME280;64129;53.508;10.476;2022-11-15T04:42:41;100606.56;;;4.22;85.47
75543;BME280;64129;53.508;10.476;2022-11-15T04:45:27;100614.44;;;4.25;85.46
75543;BME280;64129;53.508;10.476;2022-11-15T04:48:11;100609.19;;;4.31;85.06
75543;BME280;64129;53.508;10.476;2022-11-15T04:50:56;100622.31;;;4.25;86.41
75543;BME280;64129;53.508;10.476;2022-11-15T04:53:41;100623.19;;;4.24;86.41
75543;BME280;64129;53.508;10.476;2022-11-15T04:56:27;100628.44;;;4.39;86.32
75543;BME280;64129;53.508;10.476;2022-11-15T04:59:12;100632.84;;;4.38;85.77
75543;BME280;64129;53.508;10.476;2022-11-15T05:01:57;100622.31;;;4.42;86.00
75543;BME280;64129;53.508;10.476;2022-11-15T05:04:42;100630.19;;;4.43;86.40
75543;BME280;64129;53.508;10.476;2022-11-15T05:07:27;100628.44;;;4.45;85.86
75543;BME280;64129;53.508;10.476;2022-11-15T05:10:12;100626.69;;;4.62;85.36
75543;BME280;64129;53.508;10.476;2022-11-15T05:12:57;100617.91;;;4.63;85.85
75543;BME280;64129;53.508;10.476;2022-11-15T05:15:41;100615.28;;;4.62;86.16
75543;BME280;64129;53.508;10.476;2022-11-15T05:18:27;100615.28;;;4.65;85.63
75543;BME280;64129;53.508;10.476;2022-11-15T05:21:15;100613.53;;;4.64;85.90
75543;BME280;64129;53.508;10.476;2022-11-15T05:24:00;100617.03;;;4.67;85.66
75543;BME280;64129;53.508;10.476;2022-11-15T05:26:45;100614.38;;;4.75;85.64
75543;BME280;64129;53.508;10.476;2022-11-15T05:29:30;100609.13;;;4.67;85.91
75543;BME280;64129;53.508;10.476;2022-11-15T05:32:16;100609.13;;;4.70;86.04
75543;BME280;64129;53.508;10.476;2022-11-15T05:35:02;100606.50;;;4.70;86.09
75543;BME280;64129;53.508;10.476;2022-11-15T05:37:50;100613.47;;;4.81;85.88
75543;BME280;64129;53.508;10.476;2022-11-15T05:40:35;100602.97;;;4.78;86.00
75543;BME280;64129;53.508;10.476;2022-11-15T05:43:20;100615.25;;;4.76;85.95
75543;BME280;64129;53.508;10.476;2022-11-15T05:46:06;100607.38;;;4.66;86.17
75543;BME280;64129;53.508;10.476;2022-11-15T05:48:52;100603.91;;;4.55;86.36
75543;BME280;64129;53.508;10.476;2022-11-15T05:51:39;100609.13;;;4.67;86.17
75543;BME280;64129;53.508;10.476;2022-11-15T05:54:25;100609.13;;;4.67;85.79
75543;BME280;64129;53.508;10.476;2022-11-15T05:57:10;100610.91;;;4.59;86.00
75543;BME280;64129;53.508;10.476;2022-11-15T05:59:56;100605.66;;;4.59;86.09
75543;BME280;64129;53.508;10.476;2022-11-15T06:02:41;100598.63;;;4.67;85.68
75543;BME280;64129;53.508;10.476;2022-11-15T06:05:26;100603.91;;;4.52;85.92
75543;BME280;64129;53.508;10.476;2022-11-15T06:08:11;100606.53;;;4.54;86.07
75543;BME280;64129;53.508;10.476;2022-11-15T06:10:56;100615.31;;;4.57;85.82
75543;BME280;64129;53.508;10.476;2022-11-15T06:13:41;100615.28;;;4.47;86.37
75543;BME280;64129;53.508;10.476;2022-11-15T06:16:26;100620.56;;;4.57;85.92
75543;BME280;64129;53.508;10.476;2022-11-15T06:19:11;100627.56;;;4.61;85.59
75543;BME280;64129;53.508;10.476;2022-11-15T06:21:56;100622.31;;;4.60;85.65
75543;BME280;64129;53.508;10.476;2022-11-15T06:24:41;100634.59;;;4.59;85.55
75543;BME280;64129;53.508;10.476;2022-11-15T06:27:26;100631.97;;;4.53;85.90
75543;BME280;64129;53.508;10.476;2022-11-15T06:30:11;100636.31;;;4.65;85.66
75543;BME280;64129;53.508;10.476;2022-11-15T06:33:00;100638.94;;;4.68;84.90
75543;BME280;64129;53.508;10.476;2022-11-15T06:35:46;100645.97;;;4.49;85.79
75543;BME280;64129;53.508;10.476;2022-11-15T06:38:31;100647.72;;;4.62;85.97
75543;BME280;64129;53.508;10.476;2022-11-15T06:41:17;100644.22;;;4.63;86.08
75543;BME280;64129;53.508;10.476;2022-11-15T06:44:02;100638.94;;;4.73;85.46
75543;BME280;64129;53.508;10.476;2022-11-15T06:46:47;100631.91;;;4.81;85.12
75543;BME280;64129;53.508;10.476;2022-11-15T06:49:32;100632.75;;;8.58;85.13
75543;BME280;64129;53.508;10.476;2022-11-15T06:52:17;100638.66;;;7.59;81.38
75543;BME280;64129;53.508;10.476;2022-11-15T06:55:07;100636.84;;;5.72;83.35
75543;BME280;64129;53.508;10.476;2022-11-15T06:57:52;100636.06;;;5.50;84.41
75543;BME280;64129;53.508;10.476;2022-11-15T07:00:38;100643.97;;;5.46;84.53
75543;BME280;64129;53.508;10.476;2022-11-15T07:03:23;100644.03;;;5.40;83.98
75543;BME280;64129;53.508;10.476;2022-11-15T07:06:09;100647.59;;;5.28;83.92
75543;BME280;64129;53.508;10.476;2022-11-15T07:08:54;100652.81;;;5.36;84.63
75543;BME280;64129;53.508;10.476;2022-11-15T07:11:40;100645.09;;;8.59;86.16
75543;BME280;64129;53.508;10.476;2022-11-15T07:14:25;100649.88;;;6.03;82.03
75543;BME280;64129;53.508;10.476;2022-11-15T07:17:10;100647.03;;;6.33;80.55
75543;BME280;64129;53.508;10.476;2022-11-15T07:19:55;100649.09;;;5.79;82.76
75543;BME280;64129;53.508;10.476;2022-11-15T07:22:40;100646.50;;;5.72;83.48
75543;BME280;64129;53.508;10.476;2022-11-15T07:25:26;100646.50;;;5.70;82.63
75543;BME280;64129;53.508;10.476;2022-11-15T07:28:11;100651.81;;;5.67;83.07
75543;BME280;64129;53.508;10.476;2022-11-15T07:30:56;100652.66;;;5.72;83.93
75543;BME280;64129;53.508;10.476;2022-11-15T07:33:41;100653.56;;;5.68;83.87
75543;BME280;64129;53.508;10.476;2022-11-15T07:36:26;100652.66;;;5.69;84.30
75543;BME280;64129;53.508;10.476;2022-11-15T07:39:11;100662.34;;;5.66;84.37
75543;BME280;64129;53.508;10.476;2022-11-15T07:41:56;100658.78;;;5.73;84.55
75543;BME280;64129;53.508;10.476;2022-11-15T07:45:01;100664.91;;;5.79;84.25
75543;BME280;64129;53.508;10.476;2022-11-15T07:47:48;100671.94;;;5.79;83.66
75543;BME280;64129;53.508;10.476;2022-11-15T07:50:33;100668.41;;;5.81;84.07
75543;BME280;64129;53.508;10.476;2022-11-15T07:53:18;100664.88;;;5.91;84.07
75543;BME280;64129;53.508;10.476;2022-11-15T07:56:06;100662.28;;;5.75;84.75
75543;BME280;64129;53.508;10.476;2022-11-15T07:58:51;100670.16;;;5.91;84.15
75543;BME280;64129;53.508;10.476;2022-11-15T08:01:36;100665.75;;;5.93;84.51
75543;BME280;64129;53.508;10.476;2022-11-15T08:04:21;100671.84;;;6.00;83.61
75543;BME280;64129;53.508;10.476;2022-11-15T08:07:06;100667.47;;;6.01;84.65
75543;BME280;64129;53.508;10.476;2022-11-15T08:09:51;100667.38;;;6.11;83.89
75543;BME280;64129;53.508;10.476;2022-11-15T08:12:36;100670.88;;;6.13;83.11
75543;BME280;64129;53.508;10.476;2022-11-15T08:15:21;100668.22;;;6.15;84.59
75543;BME280;64129;53.508;10.476;2022-11-15T08:18:11;100665.47;;;6.33;83.62
75543;BME280;64129;53.508;10.476;2022-11-15T08:21:00;100666.41;;;6.26;83.43
75543;BME280;64129;53.508;10.476;2022-11-15T08:23:46;100669.94;;;6.25;83.85
75543;BME280;64129;53.508;10.476;2022-11-15T08:26:31;100664.66;;;6.23;83.95
75543;BME280;64129;53.508;10.476;2022-11-15T08:29:16;100666.41;;;6.21;84.58
75543;BME280;64129;53.508;10.476;2022-11-15T08:32:01;100662.00;;;6.23;84.28
75543;BME280;64129;53.508;10.476;2022-11-15T08:34:46;100664.66;;;6.20;84.23
75543;BME280;64129;53.508;10.476;2022-11-15T08:37:31;100659.34;;;6.31;85.03
75543;BME280;64129;53.508;10.476;2022-11-15T08:40:16;100662.94;;;6.18;84.66
75543;BME280;64129;53.508;10.476;2022-11-15T08:43:02;100659.25;;;6.40;84.42
75543;BME280;64129;53.508;10.476;2022-11-15T08:45:48;100660.00;;;6.56;83.76
75543;BME280;64129;53.508;10.476;2022-11-15T08:48:33;100657.34;;;6.61;84.10
75543;BME280;64129;53.508;10.476;2022-11-15T08:51:18;100650.44;;;6.44;84.39
75543;BME280;64129;53.508;10.476;2022-11-15T08:54:03;100654.69;;;6.59;84.26
75543;BME280;64129;53.508;10.476;2022-11-15T08:56:48;100650.22;;;6.69;84.37
75543;BME280;64129;53.508;10.476;2022-11-15T08:59:34;100652.06;;;6.61;83.98
75543;BME280;64129;53.508;10.476;2022-11-15T09:02:18;100637.78;;;6.80;83.58
75543;BME280;64129;53.508;10.476;2022-11-15T09:05:04;100651.88;;;6.79;83.37
75543;BME280;64129;53.508;10.476;2022-11-15T09:07:53;100644.69;;;6.93;84.35
75543;BME280;64129;53.508;10.476;2022-11-15T09:10:39;100649.44;;;7.42;82.48
75543;BME280;64129;53.508;10.476;2022-11-15T09:13:24;100650.84;;;7.70;80.88
75543;BME280;64129;53.508;10.476;2022-11-15T09:16:09;100655.81;;;7.92;80.90
75543;BME280;64129;53.508;10.476;2022-11-15T09:18:56;100655.47;;;8.16;80.80
75543;BME280;64129;53.508;10.476;2022-11-15T09:21:41;100655.03;;;8.47;79.88
75543;BME280;64129;53.508;10.476;2022-11-15T09:24:26;100649.28;;;8.17;79.93
75543;BME280;64129;53.508;10.476;2022-11-15T09:27:11;100642.94;;;8.27;79.70
75543;BME280;64129;53.508;10.476;2022-11-15T09:29:57;100647.66;;;8.64;78.75
75543;BME280;64129;53.508;10.476;2022-11-15T09:32:43;100655.97;;;8.42;79.72
75543;BME280;64129;53.508;10.476;2022-11-15T09:35:28;100649.84;;;8.40;79.80
75543;BME280;64129;53.508;10.476;2022-11-15T09:38:13;100658.56;;;8.46;79.76
75543;BME280;64129;53.508;10.476;2022-11-15T09:50:56;100652.78;;;9.65;75.54
75543;BME280;64129;53.508;10.476;2022-11-15T09:53:41;100657.50;;;9.93;75.30
75543;BME280;64129;53.508;10.476;2022-11-15T09:56:32;100663.56;;;9.58;75.93
75543;BME280;64129;53.508;10.476;2022-11-15T10:04:31;100651.56;;;9.40;76.98
75543;BME280;64129;53.508;10.476;2022-11-15T10:07:10;100651.66;;;9.34;77.71
75543;BME280;64129;53.508;10.476;2022-11-15T10:09:49;100650.38;;;9.53;77.47
75543;BME280;64129;53.508;10.476;2022-11-15T10:12:17;100641.03;;;9.79;77.28
75543;BME280;64129;53.508;10.476;2022-11-15T10:14:45;100636.47;;;9.84;77.20
75543;BME280;64129;53.508;10.476;2022-11-15T10:20:24;100643.03;;;9.66;77.53
75543;BME280;64129;53.508;10.476;2022-11-15T10:22:53;100636.88;;;9.65;77.44
75543;BME280;64129;53.508;10.476;2022-11-15T10:25:23;100634.88;;;9.77;77.63
75543;BME280;64129;53.508;10.476;2022-11-15T10:30:40;100620.63;;;9.81;77.44
75543;BME280;64129;53.508;10.476;2022-11-15T10:35:41;100623.03;;;9.91;77.80
75543;BME280;64129;53.508;10.476;2022-11-15T10:38:10;100620.63;;;9.81;77.10
75543;BME280;64129;53.508;10.476;2022-11-15T10:40:39;100625.69;;;9.91;77.56
75543;BME280;64129;53.508;10.476;2022-11-15T10:45:36;100626.53;;;9.93;77.13
75543;BME280;64129;53.508;10.476;2022-11-15T10:50:44;100614.03;;;9.98;77.09
75543;BME280;64129;53.508;10.476;2022-11-15T10:53:24;100605.81;;;10.11;76.68
75543;BME280;64129;53.508;10.476;2022-11-15T10:55:55;100604.44;;;9.93;77.06
75543;BME280;64129;53.508;10.476;2022-11-15T10:58:44;100599.78;;;10.02;76.66
75543;BME280;64129;53.508;10.476;2022-11-15T11:03:40;100589.28;;;9.98;76.53
75543;BME280;64129;53.508;10.476;2022-11-15T11:08:36;100586.78;;;9.92;77.07
75543;BME280;64129;53.508;10.476;2022-11-15T11:11:03;100587.50;;;9.98;76.53
75543;BME280;64129;53.508;10.476;2022-11-15T11:13:36;100591.06;;;9.97;76.68
75543;BME280;64129;53.508;10.476;2022-11-15T11:21:46;100574.88;;;10.10;76.98
75543;BME280;64129;53.508;10.476;2022-11-15T11:30:23;100567.00;;;10.05;77.58
75543;BME280;64129;53.508;10.476;2022-11-15T11:33:11;100561.34;;;10.20;77.29
75543;BME280;64129;53.508;10.476;2022-11-15T11:49:04;100552.94;;;10.37;77.18
75543;BME280;64129;53.508;10.476;2022-11-15T11:51:39;100559.09;;;10.41;76.63
75543;BME280;64129;53.508;10.476;2022-11-15T11:54:12;100552.72;;;10.46;77.29
75543;BME280;64129;53.508;10.476;2022-11-15T11:56:42;100544.81;;;10.45;76.74
75543;BME280;64129;53.508;10.476;2022-11-15T11:59:28;100537.59;;;10.50;76.66
75543;BME280;64129;53.508;10.476;2022-11-15T12:02:02;100544.47;;;10.57;76.68
75543;BME280;64129;53.508;10.476;2022-11-15T12:04:39;100530.59;;;10.80;76.21
75543;BME280;64129;53.508;10.476;2022-11-15T12:07:17;100534.41;;;11.01;74.72
75543;BME280;64129;53.508;10.476;2022-11-15T12:09:55;100526.28;;;11.05;75.04
75543;BME280;64129;53.508;10.476;2022-11-15T12:12:58;100522.16;;;11.26;74.66
75543;BME280;64129;53.508;10.476;2022-11-15T12:15:33;100515.16;;;11.51;73.76
75543;BME280;64129;53.508;10.476;2022-11-15T12:18:01;100514.50;;;11.43;74.03
75543;BME280;64129;53.508;10.476;2022-11-15T12:20:34;100517.38;;;11.37;73.87
75543;BME280;64129;53.508;10.476;2022-11-15T12:23:16;100522.25;;;11.23;75.10
75543;BME280;64129;53.508;10.476;2022-11-15T12:26:09;100526.63;;;11.24;74.75
75543;BME280;64129;53.508;10.476;2022-11-15T12:28:45;100518.53;;;11.29;75.00
75543;BME280;64129;53.508;10.476;2022-11-15T12:31:45;100513.25;;;11.27;75.02
75543;BME280;64129;53.508;10.476;2022-11-15T12:36:48;100506.91;;;11.31;76.12
75543;BME280;64129;53.508;10.476;2022-11-15T12:39:17;100511.31;;;11.32;75.82
75543;BME280;64129;53.508;10.476;2022-11-15T12:59:51;100503.09;;;11.40;75.52
75543;BME280;64129;53.508;10.476;2022-11-15T13:07:57;100499.69;;;11.64;75.64
75543;BME280;64129;53.508;10.476;2022-11-15T13:10:31;100494.03;;;11.47;75.80
75543;BME280;64129;53.508;10.476;2022-11-15T13:13:07;100500.66;;;11.62;75.28
75543;BME280;64129;53.508;10.476;2022-11-15T13:15:36;100491.38;;;11.47;75.66
75543;BME280;64129;53.508;10.476;2022-11-15T13:18:26;100493.75;;;11.56;75.67
75543;BME280;64129;53.508;10.476;2022-11-15T13:20:54;100494.72;;;11.53;75.63
75543;BME280;64129;53.508;10.476;2022-11-15T13:23:23;100486.63;;;11.56;75.53
75543;BME280;64129;53.508;10.476;2022-11-15T13:28:44;100482.44;;;11.49;75.63
75543;BME280;64129;53.508;10.476;2022-11-15T13:34:03;100464.03;;;11.42;75.98
75543;BME280;64129;53.508;10.476;2022-11-15T13:36:35;100466.66;;;11.43;75.46
75543;BME280;64129;53.508;10.476;2022-11-15T13:39:11;100454.09;;;11.48;75.83
75543;BME280;64129;53.508;10.476;2022-11-15T13:41:48;100449.66;;;11.21;76.53
75543;BME280;64129;53.508;10.476;2022-11-15T13:44:27;100448.13;;;11.40;76.15
75543;BME280;64129;53.508;10.476;2022-11-15T13:47:13;100437.59;;;11.37;76.24
75543;BME280;64129;53.508;10.476;2022-11-15T13:49:40;100432.47;;;11.31;76.23
75543;BME280;64129;53.508;10.476;2022-11-15T13:52:11;100420.25;;;12.06;74.40
75543;BME280;64129;53.508;10.476;2022-11-15T13:54:44;100422.22;;;12.51;72.84
75543;BME280;64129;53.508;10.476;2022-11-15T13:57:20;100416.78;;;11.78;74.01
75543;BME280;64129;53.508;10.476;2022-11-15T14:03:28;100418.84;;;11.14;76.49
75543;BME280;64129;53.508;10.476;2022-11-15T14:08:42;100436.06;;;11.30;76.17
75543;BME280;64129;53.508;10.476;2022-11-15T14:11:23;100442.28;;;11.29;76.22
75543;BME280;64129;53.508;10.476;2022-11-15T14:14:13;100432.47;;;11.31;76.55
75543;BME280;64129;53.508;10.476;2022-11-15T14:16:41;100432.88;;;11.19;76.42
75543;BME280;64129;53.508;10.476;2022-11-15T14:19:50;100434.31;;;11.29;76.75
75543;BME280;64129;53.508;10.476;2022-11-15T14:22:17;100429.19;;;11.23;76.56
75543;BME280;64129;53.508;10.476;2022-11-15T14:25:04;100431.81;;;11.24;76.69
75543;BME280;64129;53.508;10.476;2022-11-15T14:27:32;100436.66;;;11.12;77.27
75543;BME280;64129;53.508;10.476;2022-11-15T14:29:59;100436.06;;;11.01;77.52
75543;BME280;64129;53.508;10.476;2022-11-15T14:32:40;100428.88;;;11.04;77.19
75543;BME280;64129;53.508;10.476;2022-11-15T14:35:15;100436.81;;;11.06;77.23
75543;BME280;64129;53.508;10.476;2022-11-15T14:37:43;100426.19;;;11.06;77.52
75543;BME280;64129;53.508;10.476;2022-11-15T14:40:13;100416.91;;;10.91;77.95
75543;BME280;64129;53.508;10.476;2022-11-15T14:42:40;100425.00;;;10.86;77.81
75543;BME280;64129;53.508;10.476;2022-11-15T14:45:26;100421.25;;;10.93;77.65
75543;BME280;64129;53.508;10.476;2022-11-15T14:47:53;100425.09;;;10.83;77.84
75543;BME280;64129;53.508;10.476;2022-11-15T14:50:21;100413.94;;;10.71;78.80
75543;BME280;64129;53.508;10.476;2022-11-15T14:52:48;100411.00;;;10.81;78.50
75543;BME280;64129;53.508;10.476;2022-11-15T14:57:55;100409.03;;;10.57;79.50
75543;BME280;64129;53.508;10.476;2022-11-15T15:00:22;100408.91;;;10.61;78.93
75543;BME280;64129;53.508;10.476;2022-11-15T15:02:51;100409.03;;;10.57;79.27
75543;BME280;64129;53.508;10.476;2022-11-15T15:05:20;100402.88;;;11.15;77.35
75543;BME280;64129;53.508;10.476;2022-11-15T15:07:47;100409.25;;;10.80;78.33
75543;BME280;64129;53.508;10.476;2022-11-15T15:10:14;100405.00;;;10.73;78.76
75543;BME280;64129;53.508;10.476;2022-11-15T15:13:01;100401.94;;;10.57;78.84
75543;BME280;64129;53.508;10.476;2022-11-15T15:15:36;100408.22;;;10.55;79.24
75543;BME280;64129;53.508;10.476;2022-11-15T15:18:06;100410.28;;;10.45;79.50
75543;BME280;64129;53.508;10.476;2022-11-15T15:20:36;100399.78;;;10.41;79.47
75543;BME280;64129;53.508;10.476;2022-11-15T15:23:04;100408.59;;;10.43;79.36
75543;BME280;64129;53.508;10.476;2022-11-15T15:25:32;100413.94;;;10.40;79.67
75543;BME280;64129;53.508;10.476;2022-11-15T15:27:59;100408.09;;;10.28;79.95
75543;BME280;64129;53.508;10.476;2022-11-15T15:30:27;100402.19;;;10.17;80.68
75543;BME280;64129;53.508;10.476;2022-11-15T15:32:54;100396.63;;;10.26;80.06
75543;BME280;64129;53.508;10.476;2022-11-15T15:35:21;100404.59;;;10.26;80.53
75543;BME280;64129;53.508;10.476;2022-11-15T15:37:48;100396.88;;;10.17;80.62
75543;BME280;64129;53.508;10.476;2022-11-15T15:40:22;100393.25;;;10.21;80.34
75543;BME280;64129;53.508;10.476;2022-11-15T15:42:49;100387.84;;;10.24;80.40
75543;BME280;64129;53.508;10.476;2022-11-15T15:45:16;100390.59;;;10.20;80.37
75543;BME280;64129;53.508;10.476;2022-11-15T15:47:44;100394.16;;;10.20;80.85
75543;BME280;64129;53.508;10.476;2022-11-15T15:50:25;100394.31;;;10.14;80.96
75543;BME280;64129;53.508;10.476;2022-11-15T15:52:55;100392.47;;;10.16;81.28
75543;BME280;64129;53.508;10.476;2022-11-15T15:55:22;100388.88;;;10.19;80.79
75543;BME280;64129;53.508;10.476;2022-11-15T15:57:49;100392.38;;;10.21;80.63
75543;BME280;64129;53.508;10.476;2022-11-15T16:00:16;100382.69;;;10.18;81.16
75543;BME280;64129;53.508;10.476;2022-11-15T16:02:43;100389.06;;;10.11;81.26
75543;BME280;64129;53.508;10.476;2022-11-15T16:05:10;100393.31;;;10.18;81.57